Kezdőlap
METAR-TAF:

METAR-TAF

Repülőterek :

Grise Fiord, Nunavut, Kanada

földrajzi szélesség: 76-25N, földrajzi hosszúság: 082-54W, magasság: 45 m

Jelenlegi meteorológiai megfigyelések

A jelentés 13 órával és 58 perccel ezelõtt készült, 20:00 UTC
Déli szél 6 kt
Hőmérséklet 2°C
Páratartalom 93%
Légköri nyomás 1020 hPa
Látótávolság: 24.1 km
Borult 300 lábon

METAR: CWGZ 022000Z 17006KT 15SM OVC003 02/01 A3012 RMK ST8 R0 AFT 13UTC/LAST STFD OBS/NEXT 031300 UTC SLP205

Idő: 05:58 (09:58 UTC)


TAF: hiányzik

Meteorológiai megfigyelések és előrejelzések több, mint 4000 repülőtéren (METAR és TAF jelentéseket).

A térképen piros és sárga pontok jelzik az elérhető meteorológiai állomásokat.

Mozgassa az egeret a pont fölött, hogy megjelenjen az állomás neve.

Azután kattintson az időjárási megfigyelések és előrejelzések megtekintéséhez.

A térkép megváltoztatása: kattintson a fekete keresztel jelölt zöld gombra ráközelítéshez, a vonallal jelölt zöld gombra távolításhoz, vagy a zöld nyilakra a szomszédos térképek eléréséhez.


METAR-TAF: